x

Gooses Reef, Md (44062) Weather Station

2:40am - Fri 12th Feb 2016 All times are EST. -5 hours from GMT.

  • Wind
    16mph, 20mph gusts
  • Air Temp 23°f
  • Sea Pressure 1027.8mb
  • Gooses Reef, Md
  • Gooses Reef, Md

More Historic Weather Station data

Upgrade to MSW Pro to gain access to the past 30 days of data for over 8000 Wavebouys and Weather Stations around the globe.

Join Pro

Comparision Forecast

View Surf forecast
   
Fri 02/12 2:40am  -   -  16 20 mph 1027.8mb - 23f
2:30am  -   -  16 22 mph 1027.8mb - 23f
2:20am  -   -  13 18 mph 1028mb - 23f
2:10am  -   -  13 18 mph 1028mb - 23f
2:00am 1.3ft 3s 16 20 mph 1028mb 37f 24f
1:50am  -   -  13 18 mph 1028.2mb - 24f
1:40am  -   -  13 18 mph 1028.3mb - 24f
1:30am  -   -  16 18 mph 1028.1mb - 24f
1:20am  -   -  16 18 mph 1028.2mb - 24f
1:10am  -   -  13 20 mph 1028.4mb - 24f
1:00am 1.6ft 3s 13 18 mph 1028.4mb 37f 24f
12:50am  -   -  13 20 mph 1028.3mb - 24f
12:10am  -   -  16 20 mph 1028.2mb - 24f
12:00am 1.3ft 3s 16 20 mph 1028mb 38f 24f
Thu 02/11 11:50pm  -   -  16 20 mph 1028mb - 24f
11:40pm  -   -  16 20 mph 1027.8mb - 25f
11:30pm  -   -  18 22 mph 1027.6mb - 25f
11:20pm  -   -  20 22 mph 1027.8mb - 25f
11:10pm  -   -  18 22 mph 1028mb - 25f
11:00pm 1.6ft 3s 18 22 mph 1028mb 38f 25f
10:50pm  -   -  18 25 mph 1027.8mb - 25f
10:40pm  -   -  20 25 mph 1027.6mb - 25f
10:30pm  -   -  18 22 mph 1027.6mb - 25f
10:20pm  -   -  18 25 mph 1027.7mb - 25f
10:10pm  -   -  20 25 mph 1027.5mb - 25f
10:00pm 2ft 3s 18 25 mph 1027.5mb 38f 25f
9:50pm  -   -  18 25 mph 1027.6mb - 25f
9:40pm  -   -  16 22 mph 1027.5mb - 25f
9:30pm  -   -  18 25 mph 1027.1mb - 26f
9:20pm  -   -  20 25 mph 1027mb - 26f
9:10pm  -   -  18 25 mph 1027.1mb - 26f
9:00pm 2.5ft 3s 20 25 mph 1027mb 38f 26f
8:50pm  -   -  22 29 mph 1026.6mb - 26f
8:40pm  -   -  22 29 mph 1026.4mb - 26f
8:30pm  -   -  22 29 mph 1026.5mb - 26f
8:20pm  -   -  18 22 mph 1026.5mb - 26f
8:10pm  -   -  20 25 mph 1026.3mb - 27f
8:00pm 2ft 3s 20 27 mph 1026mb 38f 27f
7:50pm  -   -  20 29 mph 1025.6mb - 27f
7:40pm  -   -  18 25 mph 1025.6mb - 27f
7:30pm  -   -  18 22 mph 1025.6mb - 27f
7:20pm  -   -  18 22 mph 1025.4mb - 27f
7:10pm  -   -  20 27 mph 1025.1mb - 28f
7:00pm 2.5ft 3s 22 29 mph 1024.8mb 38f 28f
6:50pm  -   -  25 31 mph 1024.5mb - 28f
6:40pm  -   -  25 29 mph 1024.4mb - 28f
6:30pm  -   -  25 31 mph 1024.3mb - 28f
6:20pm  -   -  22 29 mph 1024.1mb - 28f
6:10pm  -   -  22 27 mph 1023.9mb - 28f
6:00pm 2.5ft 3s 25 31 mph 1023.6mb 38f 28f
5:50pm  -   -  25 31 mph 1023.3mb - 29f
5:40pm  -   -  25 29 mph 1023.1mb - 29f
5:30pm  -   -  22 27 mph 1023mb - 29f
5:20pm  -   -  22 31 mph 1022.8mb - 29f
5:10pm  -   -  22 29 mph 1022.6mb - 29f
5:00pm 2.5ft 3s 22 29 mph 1022.3mb 38f 29f
4:50pm  -   -  25 31 mph 1022.1mb - 29f
4:40pm  -   -  25 29 mph 1022mb - 29f
4:30pm  -   -  22 29 mph 1021.8mb - 29f
4:20pm  -   -  22 31 mph 1021.7mb - 30f
4:10pm  -   -  22 29 mph 1021.6mb - 29f
4:00pm 2.5ft 3s 22 31 mph 1021.4mb 38f 30f
3:50pm  -   -  22 29 mph 1021.3mb - 29f
3:10pm  -   -  25 31 mph 1020.4mb - 29f
3:00pm 2.5ft 3s 22 29 mph 1020.3mb 38f 29f
2:50pm  -   -  22 31 mph 1020.3mb - 29f
2:40pm  -   -  20 29 mph 1020.2mb - 29f
2:30pm  -   -  20 29 mph 1020.2mb - 29f
2:20pm  -   -  20 27 mph 1020.2mb - 29f
2:10pm  -   -  20 27 mph 1020.2mb - 28f
2:00pm 2.5ft 3s 20 27 mph 1020.1mb 38f 28f
1:50pm  -   -  20 27 mph 1020mb - 28f
1:40pm  -   -  20 27 mph 1020mb - 28f
1:30pm  -   -  20 27 mph 1020.1mb - 28f
1:20pm  -   -  20 25 mph 1020.1mb - 28f
1:10pm  -   -  20 29 mph 1020.1mb - 28f
1:00pm 2.5ft 3s 25 29 mph 1020.2mb 38f 28f
12:50pm  -   -  22 34 mph 1020.2mb - 28f
12:40pm  -   -  20 25 mph 1020.4mb - 27f
12:30pm  -   -  22 31 mph 1020.4mb - 27f
12:20pm  -   -  20 29 mph 1020.5mb - 27f
12:10pm  -   -  22 27 mph 1020.7mb - 27f
12:00pm 2ft 3s 22 27 mph 1020.8mb 38f 27f
11:50am  -   -  20 27 mph 1020.9mb - 26f
11:40am  -   -  20 27 mph 1021mb - 26f
11:30am  -   -  22 29 mph 1021mb - 26f
11:10am  -   -  22 29 mph 1020.9mb - 26f
11:00am 2.5ft 3s 22 29 mph 1021mb 38f 26f
10:50am  -   -  20 29 mph 1021.1mb - 26f
10:40am  -   -  22 27 mph 1021.1mb - 26f
10:30am  -   -  22 29 mph 1021.2mb - 26f
10:20am  -   -  22 29 mph 1021.2mb - 25f
10:10am  -   -  25 34 mph 1021.1mb - 26f
10:00am 2.5ft 3s 27 34 mph 1021mb 38f 25f
9:50am  -   -  27 34 mph 1020.8mb - 25f
9:40am  -   -  25 29 mph 1020.7mb - 25f
9:30am  -   -  27 31 mph 1020.7mb - 25f
9:20am  -   -  25 34 mph 1020.9mb - 25f
9:10am  -   -  22 31 mph 1021mb - 25f
9:00am 2.5ft 3s 25 34 mph 1020.8mb 38f 25f
8:50am  -   -  25 31 mph 1020.6mb - 25f
8:40am  -   -  22 31 mph 1020.4mb - 25f
8:30am  -   -  22 31 mph 1020.2mb - 25f
8:20am  -   -  22 29 mph 1020.1mb - 25f
8:10am  -   -  20 25 mph 1020mb - 25f
8:00am 2ft 3s 18 25 mph 1019.9mb 38f 25f
7:50am  -   -  18 22 mph 1019.8mb - 25f
7:40am  -   -  18 22 mph 1019.6mb - 25f
7:30am  -   -  18 27 mph 1019.4mb - 25f
7:20am  -   -  16 20 mph 1019.4mb - 25f
7:10am  -   -  16 20 mph 1019.3mb - 24f
7:00am 2ft 3s 20 25 mph 1019mb 38f 25f
6:50am  -   -  18 25 mph 1018.7mb - 25f
6:40am  -   -  20 25 mph 1018.5mb - 25f
6:30am  -   -  20 25 mph 1018.4mb - 25f
6:20am  -   -  20 27 mph 1018.4mb - 25f
6:10am  -   -  20 27 mph 1018.3mb - 25f
6:00am 2ft 3s 20 27 mph 1018.1mb 38f 25f
5:50am  -   -  22 29 mph 1017.7mb - 25f
5:40am  -   -  20 29 mph 1017.6mb - 25f
5:30am  -   -  18 27 mph 1017.4mb - 25f
5:20am  -   -  20 27 mph 1017.3mb - 26f
5:10am  -   -  20 27 mph 1017.1mb - 26f
5:00am 1.6ft 3s 20 22 mph 1016.9mb 38f 25f
4:50am  -   -  18 25 mph 1016.7mb - 26f
4:40am  -   -  16 20 mph 1016.6mb - 26f
4:30am  -   -  18 20 mph 1016.4mb - 26f
4:20am  -   -  20 25 mph 1016.2mb - 26f
4:10am  -   -  22 27 mph 1016.1mb - 26f
4:00am 2.5ft 3s 22 27 mph 1015.9mb 39f 26f
3:50am  -   -  25 29 mph 1015.8mb - 26f
3:40am  -   -  25 36 mph 1015.7mb - 26f
3:30am  -   -  25 31 mph 1015.8mb - 27f
3:20am  -   -  25 31 mph 1015.9mb - 27f
3:10am  -   -  25 31 mph 1015.8mb - 27f
3:00am 2.5ft 3s 25 31 mph 1015.8mb 39f 27f
2:50am  -   -  22 29 mph 1015.7mb - 27f
2:40am  -   -  22 27 mph 1015.6mb - 27f
2:30am  -   -  22 29 mph 1015.5mb - 27f
2:20am  -   -  22 27 mph 1015.5mb - 27f
2:10am  -   -  20 25 mph 1015.6mb - 27f
2:00am 2ft 3s 22 27 mph 1015.4mb 39f 28f
1:50am  -   -  22 27 mph 1015.2mb - 28f
1:40am  -   -  20 25 mph 1015.2mb - 28f
1:30am  -   -  20 27 mph 1015.2mb - 28f
1:20am  -   -  20 27 mph 1015.3mb - 28f
1:10am  -   -  20 27 mph 1015.3mb - 28f
1:00am 2ft 3s 20 25 mph 1015.3mb 39f 28f
12:50am  -   -  22 29 mph 1015.2mb - 28f
12:40am  -   -  22 29 mph 1015.1mb - 28f
12:30am  -   -  22 29 mph 1015.1mb - 28f
12:20am  -   -  22 29 mph 1015mb - 28f
12:10am  -   -  22 29 mph 1015mb - 28f
12:00am 1.6ft 3s 22 29 mph 1014.9mb 39f 28f
Wed 02/10 11:50pm  -   -  22 29 mph 1014.8mb - 29f
11:40pm  -   -  22 29 mph 1014.7mb - 28f
11:30pm  -   -  22 27 mph 1014.6mb - 28f
11:20pm  -   -  20 29 mph 1014.6mb - 29f
11:10pm  -   -  22 27 mph 1014.5mb - 29f
11:00pm 2ft 3s 18 27 mph 1014.6mb 39f 29f
10:50pm  -   -  18 25 mph 1014.4mb - 29f
10:40pm  -   -  20 27 mph 1014.3mb - 29f
10:30pm  -   -  22 29 mph 1014.2mb - 29f
10:20pm  -   -  25 29 mph 1014.2mb - 28f
10:10pm  -   -  22 29 mph 1014.2mb - 28f
10:00pm 2ft 3s 25 31 mph 1014.1mb 39f 28f
9:50pm  -   -  25 29 mph 1013.9mb - 29f
9:40pm  -   -  22 29 mph 1013.9mb - 29f
9:30pm  -   -  25 29 mph 1013.7mb - 29f
9:20pm  -   -  22 31 mph 1013.6mb - 29f
9:10pm  -   -  22 27 mph 1013.5mb - 29f
9:00pm 2.5ft 3s 22 29 mph 1013.3mb 39f 29f
8:50pm  -   -  22 27 mph 1013.2mb - 29f
8:40pm  -   -  25 29 mph 1013mb - 30f
8:30pm  -   -  25 31 mph 1012.9mb - 30f
8:20pm  -   -  25 29 mph 1012.8mb - 30f
8:10pm  -   -  25 29 mph 1012.7mb - 31f
8:00pm 2.5ft 3s 25 29 mph 1012.6mb 39f 31f
7:50pm  -   -  25 29 mph 1012.4mb - 31f
7:40pm  -   -  25 29 mph 1012.2mb - 32f
7:30pm  -   -  25 31 mph 1012.1mb - 32f
7:20pm  -   -  25 31 mph 1011.9mb - 32f
7:10pm  -   -  22 29 mph 1011.9mb - 33f
7:00pm 1.6ft 3s 22 29 mph 1011.7mb 39f 33f
6:50pm  -   -  22 29 mph 1011.4mb - 34f
6:40pm  -   -  16 22 mph 1011.3mb - 35f
6:30pm  -   -  18 22 mph 1011.1mb - 36f
6:20pm  -   -  13 18 mph 1010.9mb - 36f
6:10pm  -   -  13 16 mph 1010.8mb - 36f
6:00pm 1ft 2s 11 13 mph 1010.7mb 39f 37f
5:50pm  -   -  11 13 mph 1010.5mb - 37f
5:40pm  -   -  9 13 mph 1010.3mb - 37f
5:30pm  -   -  11 13 mph 1010.2mb - 37f
5:20pm  -   -  11 13 mph 1010.1mb - 37f
5:10pm  -   -  11 16 mph 1010.1mb - 37f
5:00pm 1.3ft 2s 11 16 mph 1010mb 40f 37f
4:50pm  -   -  11 13 mph 1010mb - 37f
4:40pm  -   -  11 13 mph 1009.8mb - 37f
4:30pm  -   -  11 16 mph 1009.7mb - 37f
4:20pm  -   -  11 16 mph 1009.7mb - 37f
4:10pm  -   -  11 16 mph 1009.7mb - 37f
4:00pm 1.3ft 2s 9 11 mph 1009.6mb 40f 37f
3:50pm  -   -  11 16 mph 1009.5mb - 37f
3:40pm  -   -  13 16 mph 1009.4mb - 37f
3:30pm  -   -  11 16 mph 1009.4mb - 37f
3:20pm  -   -  11 13 mph 1009.3mb - 37f
3:10pm  -   -  11 16 mph 1009.3mb - 37f
3:00pm 1.3ft 2s 11 13 mph 1009.2mb 40f 37f
2:50pm  -   -  11 16 mph 1009.2mb - 37f
2:40pm  -   -  11 13 mph 1009.1mb - 37f
2:30pm  -   -  11 16 mph 1009mb - 38f
2:20pm  -   -  11 18 mph 1009mb - 37f
2:10pm  -   -  13 18 mph 1009mb - 37f
2:00pm 1.6ft 2s 13 18 mph 1009.1mb 40f 37f
1:50pm  -   -  13 16 mph 1009.1mb - 37f
1:40pm  -   -  13 20 mph 1009.1mb - 37f
1:30pm  -   -  13 18 mph 1009.2mb - 37f
1:20pm  -   -  13 18 mph 1009.3mb - 37f
1:10pm  -   -  13 18 mph 1009.4mb - 36f
1:00pm 1.6ft 3s 13 20 mph 1009.5mb 40f 36f
12:50pm  -   -  11 18 mph 1009.6mb - 36f
12:40pm  -   -  11 18 mph 1009.7mb - 36f
12:30pm  -   -  13 20 mph 1009.7mb - 35f
12:20pm  -   -  13 18 mph 1009.8mb - 35f
12:10pm  -   -  16 20 mph 1009.8mb - 35f
12:00pm 1.6ft 3s 18 22 mph 1009.8mb 39f 35f
11:50am  -   -  18 22 mph 1009.9mb - 35f
11:40am  -   -  16 20 mph 1010.1mb - 35f
11:30am  -   -  18 22 mph 1010.1mb - 35f
11:20am  -   -  16 20 mph 1010.2mb - 35f
11:10am  -   -  16 20 mph 1010.3mb - 35f
11:00am 1.6ft 3s 18 22 mph 1010.3mb 39f 34f
10:50am  -   -  18 25 mph 1010.4mb - 34f
10:40am  -   -  20 25 mph 1010.5mb - 34f
10:30am  -   -  20 27 mph 1010.4mb - 34f
10:20am  -   -  22 27 mph 1010.3mb - 34f
10:10am  -   -  22 27 mph 1010.3mb - 34f
10:00am 2ft 3s 18 22 mph 1010.3mb 39f 34f
9:50am  -   -  20 25 mph 1010.3mb - 34f
9:40am  -   -  20 25 mph 1010.2mb - 34f
9:30am  -   -  20 27 mph 1010.1mb - 34f
9:20am  -   -  20 27 mph 1010.2mb - 34f
9:10am  -   -  18 27 mph 1010.3mb - 34f
9:00am 1.3ft 3s 18 25 mph 1010.3mb 39f 33f
8:50am  -   -  16 22 mph 1010.3mb - 33f
8:40am  -   -  16 25 mph 1010.2mb - 33f
8:30am  -   -  16 20 mph 1010.1mb - 33f
8:20am  -   -  16 20 mph 1010mb - 32f
8:10am  -   -  16 18 mph 1009.9mb - 32f
8:00am 1.3ft 2s 13 18 mph 1009.8mb 39f 32f
7:50am  -   -  13 16 mph 1009.7mb - 32f
7:40am  -   -  13 20 mph 1009.5mb - 32f
7:30am  -   -  13 18 mph 1009.3mb - 32f
7:20am  -   -  13 18 mph 1009.1mb - 32f
7:10am  -   -  13 18 mph 1008.9mb - 32f
7:00am 1.6ft 2s 16 20 mph 1008.7mb 39f 31f
6:50am  -   -  13 18 mph 1008.7mb - 31f
6:40am  -   -  16 20 mph 1008.5mb - 31f
6:30am  -   -  13 18 mph 1008.4mb - 31f
6:20am  -   -  13 18 mph 1008.2mb - 31f
6:10am  -   -  13 18 mph 1008.1mb - 31f
6:00am 1.6ft 3s 13 16 mph 1008.1mb 39f 31f
5:50am  -   -  13 16 mph 1008mb - 30f
5:40am  -   -  13 16 mph 1008mb - 30f
5:30am  -   -  13 18 mph 1007.8mb - 30f
5:20am  -   -  13 18 mph 1007.7mb - 30f
5:10am  -   -  16 20 mph 1007.6mb - 30f
5:00am 2ft 3s 18 22 mph 1007.5mb 40f 30f
4:50am  -   -  16 25 mph 1007.5mb - 30f
4:40am  -   -  16 20 mph 1007.3mb - 30f
4:30am  -   -  18 22 mph 1007.3mb - 31f
4:20am  -   -  16 18 mph 1007.2mb - 31f
4:10am  -   -  16 20 mph 1007.2mb - 31f
4:00am 2ft 3s 16 20 mph 1007.1mb 40f 31f
3:50am  -   -  18 22 mph 1007mb - 31f
3:40am  -   -  18 22 mph 1007mb - 31f
3:30am  -   -  18 22 mph 1006.9mb - 31f
3:20am  -   -  20 25 mph 1006.6mb - 31f
3:10am  -   -  22 27 mph 1006.5mb - 32f
3:00am 2ft 3s 22 29 mph 1006.5mb 40f 32f
2:50am  -   -  20 29 mph 1006.5mb - 32f
2:40am  -   -  20 27 mph 1006.5mb - 32f
2:30am  -   -  18 25 mph 1006.5mb - 32f
2:20am  -   -  18 22 mph 1006.5mb - 32f
2:10am  -   -  18 22 mph 1006.5mb - 32f
2:00am 2ft 3s 18 22 mph 1006.5mb 40f 32f
1:50am  -   -  18 25 mph 1006.4mb - 33f
1:40am  -   -  20 25 mph 1006.2mb - 33f
1:30am  -   -  18 22 mph 1006.3mb - 33f
1:20am  -   -  16 22 mph 1006.2mb - 33f
1:10am  -   -  18 22 mph 1006.2mb - 34f
1:00am 1.6ft 3s 18 25 mph 1006.1mb 40f 34f
12:50am  -   -  18 22 mph 1006.2mb - 34f
12:40am  -   -  18 25 mph 1006.1mb - 34f
12:30am  -   -  18 22 mph 1006.1mb - 34f
12:20am  -   -  16 20 mph 1006.2mb - 34f
12:10am  -   -  13 18 mph 1006.3mb - 34f
12:00am 1.6ft 3s 16 20 mph 1006.3mb 40f 34f
Tue 02/09 11:50pm  -   -  18 22 mph 1006.3mb - 34f
11:40pm  -   -  18 22 mph 1006.1mb - 35f
11:30pm  -   -  18 22 mph 1006.1mb - 35f
11:20pm  -   -  18 20 mph 1006mb - 35f
11:10pm  -   -  18 20 mph 1005.9mb - 35f
11:00pm 1.3ft 3s 16 20 mph 1005.9mb 40f 35f
10:50pm  -   -  16 20 mph 1006.1mb - 36f
10:40pm  -   -  16 18 mph 1006.1mb - 36f
10:30pm  -   -  16 20 mph 1006.1mb - 36f
10:20pm  -   -  16 22 mph 1006mb - 36f
10:10pm  -   -  16 18 mph 1006mb - 36f
10:00pm 1ft 3s 13 18 mph 1006mb 40f 36f
9:50pm  -   -  13 16 mph 1006mb - 36f
9:40pm  -   -  13 16 mph 1005.8mb - 36f
9:30pm  -   -  11 13 mph 1005.8mb - 36f
9:20pm  -   -  11 13 mph 1005.9mb - 37f
9:10pm  -   -  13 18 mph 1005.8mb - 37f
9:00pm 1ft 3s 13 16 mph 1005.9mb 40f 37f
8:50pm  -   -  13 18 mph 1005.8mb - 37f
8:40pm  -   -  11 16 mph 1005.7mb - 37f
8:30pm  -   -  11 13 mph 1005.6mb - 37f
8:20pm  -   -  9 11 mph 1005.6mb - 37f
8:10pm  -   -  9 13 mph 1005.4mb - 37f
8:00pm 1ft 3s 11 13 mph 1005.3mb 40f 37f
7:50pm  -   -  9 13 mph 1005.2mb - 37f
7:40pm  -   -  9 16 mph 1005.1mb - 38f
7:30pm  -   -  9 11 mph 1005mb - 38f
7:20pm  -   -  9 11 mph 1004.8mb - 38f
7:10pm  -   -  11 13 mph 1004.7mb - 38f
7:00pm 1.3ft 3s 13 16 mph 1004.6mb 40f 38f
6:50pm  -   -  13 16 mph 1004.5mb - 38f
6:40pm  -   -  13 16 mph 1004.2mb - 38f
6:30pm  -   -  13 16 mph 1004mb - 38f
6:20pm  -   -  11 13 mph 1003.9mb - 38f
6:10pm  -   -  11 16 mph 1003.9mb - 39f
6:00pm 1.3ft 3s 11 13 mph 1003.8mb 40f 39f
5:50pm  -   -  11 13 mph 1003.6mb - 39f
5:40pm  -   -  13 16 mph 1003.4mb - 39f
5:30pm  -   -  13 16 mph 1003.2mb - 39f
5:20pm  -   -  11 13 mph 1003mb - 39f
5:10pm  -   -  11 13 mph 1002.9mb - 40f
5:00pm 1.3ft 3s 11 16 mph 1002.8mb 40f 40f
4:50pm  -   -  11 13 mph 1002.8mb - 39f
4:40pm  -   -  13 18 mph 1002.7mb - 39f
4:30pm  -   -  13 18 mph 1002.6mb - 39f
4:20pm  -   -  11 13 mph 1002.5mb - 39f
4:10pm  -   -  13 16 mph 1002.2mb - 40f
4:00pm 1.3ft 3s 13 16 mph 1002.1mb 40f 40f
3:50pm  -   -  11 16 mph 1002mb - 40f
3:40pm  -   -  16 20 mph 1001.8mb - 39f
3:30pm  -   -  18 20 mph 1001.7mb - 39f
3:20pm  -   -  16 20 mph 1001.6mb - 40f
3:10pm  -   -  13 18 mph 1001.6mb - 40f
3:00pm 1.3ft 2s 13 18 mph 1001.5mb 40f 39f
2:50pm  -   -  13 18 mph 1001.4mb - 39f
2:40pm  -   -  13 16 mph 1001.4mb - 39f
2:30pm  -   -  13 18 mph 1001.4mb - 39f
2:20pm  -   -  16 20 mph 1001.3mb - 39f
2:10pm  -   -  18 22 mph 1001.1mb - 38f
2:00pm 0.7ft  -  13 18 mph 1001.3mb 40f 37f
1:50pm  -   -   -  mph 1001.3mb - 38f
1:40pm  -   -   -  mph 1001.2mb - 38f
1:30pm  -   -  4
mph
1001.2mb - 38f
1:20pm  -   -  4
mph
1001.1mb - 38f
1:10pm  -   -  7 11 mph 1001.1mb - 37f
1:00pm 0.7ft  -  9 13 mph 1001.3mb 40f 37f
12:50pm  -   -  11 13 mph 1001.5mb - 38f
12:40pm  -   -  22
mph
1001.6mb - 39f
12:30pm  -   -   -  mph 1001.7mb - 39f
12:20pm  -   -  7 9 mph 1001.8mb - 39f
12:10pm  -   -  4 7 mph 1001.9mb - 39f
12:00pm 1ft 2s 4
mph
1002.1mb 40f 39f
11:50am  -   -  4
mph
1002.2mb - 39f
11:40am  -   -  7
mph
1002.3mb - 39f
11:30am  -   -  7 9 mph 1002.2mb - 39f
11:20am  -   -  9 11 mph 1002.3mb - 39f
11:10am  -   -  9 11 mph 1002.4mb - 38f
11:00am 1ft 2s 9 11 mph 1002.4mb 40f 38f
10:50am  -   -  9 11 mph 1002.5mb - 38f
10:40am  -   -  9 11 mph 1002.5mb - 38f
10:30am  -   -  9 11 mph 1002.6mb - 38f
10:20am  -   -  9 11 mph 1002.6mb - 38f
10:10am  -   -  9 13 mph 1002.6mb - 38f
10:00am 1ft 2s 11 13 mph 1002.6mb 40f 38f
9:50am  -   -  11 13 mph 1002.6mb - 38f
9:40am  -   -  11 13 mph 1002.6mb - 38f
9:30am  -   -  11 13 mph 1002.6mb - 38f
9:20am  -   -  9 11 mph 1002.8mb - 37f
9:10am  -   -  9
mph
1002.8mb - 38f
9:00am 1ft 2s 9
mph
1002.8mb 40f 38f
8:50am  -   -  9
mph
1002.9mb - 38f
8:40am  -   -  9 11 mph 1002.9mb - 38f
8:30am  -   -  9 11 mph 1002.8mb - 38f
8:20am  -   -  9 11 mph 1002.8mb - 38f
8:10am  -   -  11
mph
1002.7mb - 38f
8:00am 1.3ft 3s 11 13 mph 1002.5mb 40f 38f
7:50am  -   -  11 13 mph 1002.5mb - 38f
7:40am  -   -  11 13 mph 1002.5mb - 38f
7:30am  -   -  11 13 mph 1002.4mb - 38f
7:20am  -   -  11 13 mph 1002.5mb - 38f
7:10am  -   -  11 13 mph 1002.5mb - 37f
7:00am 1.6ft 3s 13 16 mph 1002.4mb 40f 37f
6:50am  -   -  13 16 mph 1002.4mb - 37f
6:40am  -   -  13 16 mph 1002.5mb - 38f
6:30am  -   -  13 16 mph 1002.5mb - 38f
6:20am  -   -  13 16 mph 1002.5mb - 38f
6:10am  -   -  16
mph
1002.4mb - 38f
6:00am 1.6ft 2s 16 18 mph 1002.4mb 40f 38f
5:50am  -   -  16 18 mph 1002.3mb - 38f
5:40am  -   -  16 18 mph 1002.3mb - 38f
5:30am  -   -  16 18 mph 1002.2mb - 38f
5:20am  -   -  16 18 mph 1002.4mb - 38f
5:10am  -   -  16 18 mph 1002.4mb - 38f
5:00am 1.3ft 2s 13 18 mph 1002.5mb 40f 38f
4:50am  -   -  13 16 mph 1002.5mb - 38f
4:40am  -   -  11 16 mph 1002.4mb - 38f
4:30am  -   -  11 13 mph 1002.5mb - 38f
4:20am  -   -  11 13 mph 1002.5mb - 37f
4:10am  -   -  11 13 mph 1002.4mb - 37f
4:00am 1.3ft 3s 13 16 mph 1002.3mb 40f 37f
3:50am  -   -  13 16 mph 1002.4mb - 37f
3:40am  -   -  11 13 mph 1002.4mb - 37f
3:30am  -   -  11 13 mph 1002.5mb - 37f
3:20am  -   -  11 16 mph 1002.6mb - 37f
3:10am  -   -  11 13 mph 1002.8mb - 37f
3:00am 1.3ft 3s 11 13 mph 1002.9mb 40f 37f
2:50am  -   -  11 13 mph 1003.2mb - 37f
2:40am  -   -  11 13 mph 1003.3mb - 37f
2:30am  -   -  11 13 mph 1003.5mb - 37f
2:20am  -   -  11 13 mph 1003.5mb - 37f
2:10am  -   -  11 13 mph 1003.7mb - 37f
2:00am 1ft 3s 11 13 mph 1003.8mb 40f 37f
1:50am  -   -  11 13 mph 1004mb - 37f
1:40am  -   -  9 11 mph 1004.1mb - 37f
1:30am  -   -  9 11 mph 1004.1mb - 37f
1:20am  -   -  9 11 mph 1004.3mb - 37f
1:10am  -   -  9 11 mph 1004.6mb - 37f
1:00am 1.3ft 2s 9 11 mph 1004.8mb 40f 37f
12:50am  -   -  9 13 mph 1004.9mb - 37f
12:40am  -   -  11 13 mph 1004.9mb - 37f
12:30am  -   -  11 13 mph 1004.9mb - 37f
12:20am  -   -  13 16 mph 1005mb - 38f
12:10am  -   -  13 16 mph 1005.1mb - 38f
12:00am 1.3ft 3s 13 16 mph 1005.3mb 40f 38f
Mon 02/08 11:50pm  -   -  11 13 mph 1005.3mb - 38f
11:40pm  -   -  11 13 mph 1005.6mb - 38f
11:30pm  -   -  11 13 mph 1005.7mb - 38f
11:20pm  -   -  13 16 mph 1005.9mb - 38f
11:10pm  -   -  13 16 mph 1006mb - 38f
11:00pm 1.6ft 3s 13 16 mph 1006.1mb 40f 38f
10:50pm  -   -  16
mph
1006.1mb - 38f
10:40pm  -   -  13 16 mph 1006.3mb - 38f
10:30pm  -   -  16 18 mph 1006.5mb - 38f
10:10pm  -   -  13 16 mph 1006.7mb - 38f
10:00pm 1.3ft 3s 13 16 mph 1006.8mb 40f 38f
9:50pm  -   -  13 16 mph 1006.8mb - 38f
9:40pm  -   -  13 16 mph 1007mb - 39f
9:30pm  -   -  13 18 mph 1007.1mb - 39f
9:20pm  -   -  13 18 mph 1007.3mb - 39f
9:10pm  -   -  13 16 mph 1007.5mb - 39f
9:00pm 2ft 3s 16 18 mph 1007.4mb 40f 39f
8:50pm  -   -  16 18 mph 1007.3mb - 39f
8:40pm  -   -  16 18 mph 1007.4mb - 40f
8:30pm  -   -  16 18 mph 1007.5mb - 40f
8:20pm  -   -  16 20 mph 1007.6mb - 40f
8:10pm  -   -  16 20 mph 1007.7mb - 40f
8:00pm 1.6ft 3s 16 20 mph 1007.8mb 40f 40f
7:50pm  -   -  16 18 mph 1007.8mb - 40f
7:40pm  -   -  18 20 mph 1007.7mb - 40f
7:30pm  -   -  18 20 mph 1007.8mb - 40f
7:20pm  -   -  18 20 mph 1007.7mb - 40f
7:10pm  -   -  18 22 mph 1007.6mb - 40f
7:00pm 1ft 3s 18 20 mph 1007.6mb 40f 41f
6:50pm  -   -  13 18 mph 1007.7mb - 41f
6:40pm  -   -  9 11 mph 1007.7mb - 41f
6:30pm  -   -  9 11 mph 1007.6mb - 41f
6:20pm  -   -  11 13 mph 1007.5mb - 41f
6:10pm  -   -  11 13 mph 1007.5mb - 40f
6:00pm 0.3ft  -  11 13 mph 1007.5mb 40f 40f
5:50pm  -   -  11 13 mph 1007.4mb - 41f
5:40pm  -   -  11 13 mph 1007.5mb - 41f
5:30pm  -   -  9 11 mph 1007.5mb - 41f
5:20pm  -   -  9 11 mph 1007.4mb - 41f
5:10pm  -   -  9 11 mph 1007.2mb - 41f
5:00pm 0.3ft  -  9
mph
1007mb 40f 40f
4:50pm  -   -  9
mph
1007.1mb - 40f
4:40pm  -   -  7 9 mph 1007.2mb - 40f
4:30pm  -   -  7
mph
1007.3mb - 40f
4:10pm  -   -  4
mph
1007.3mb - 40f
4:00pm 0.3ft  -  4
mph
1007.2mb 40f 40f
3:50pm  -   -  7
mph
1007mb - 40f
3:40pm  -   -  7
mph
1006.9mb - 40f
3:30pm  -   -  4
mph
1007.2mb - 40f
3:20pm  -   -  4
mph
1007.2mb - 40f
3:10pm  -   -  4 7 mph 1007.2mb - 40f
3:00pm 0.3ft  -  4 7 mph 1007.1mb 40f 40f
2:50pm  -   -  4 7 mph 1007.2mb - 40f
2:40pm  -   -  4 7 mph 1007.1mb - 40f
2:30pm  -   -  4 7 mph 1007.1mb - 40f
2:20pm  -   -  7
mph
1007.3mb - 40f
2:10pm  -   -  7
mph
1007.2mb - 40f
2:00pm 0.7ft  -  7
mph
1007.2mb 40f 40f
1:50pm  -   -  7
mph
1007.2mb - 40f
1:40pm  -   -  7 9 mph 1007.3mb - 40f
1:30pm  -   -  7 9 mph 1007.6mb - 40f
1:20pm  -   -  9
mph
1007.7mb - 40f
1:10pm  -   -  9 11 mph 1007.6mb - 40f
1:00pm 0.7ft  -  9
mph
1007.6mb 40f 40f
12:50pm  -   -  9
mph
1007.8mb - 40f
12:40pm  -   -  9 11 mph 1008mb - 40f
12:30pm  -   -  9 11 mph 1008.4mb - 40f
12:20pm  -   -  11
mph
1008.5mb - 39f
12:10pm  -   -  11 13 mph 1008.5mb - 39f
12:00pm 1ft 2s 11 13 mph 1008.9mb 40f 39f
11:50am  -   -  11 13 mph 1009.1mb - 39f
11:40am  -   -  11 13 mph 1009.1mb - 39f
11:30am  -   -  11 13 mph 1009.2mb - 39f
11:20am  -   -  11 13 mph 1009.3mb - 39f
11:10am  -   -  11 13 mph 1009.4mb - 39f
11:00am 1.3ft 2s 11 13 mph 1009.4mb 40f 39f
10:50am  -   -  11 13 mph 1009.3mb - 39f
10:40am  -   -  13 16 mph 1009.3mb - 39f
10:30am  -   -  13 16 mph 1009.3mb - 39f
10:20am  -   -  13 16 mph 1009.3mb - 39f
10:10am  -   -  13 16 mph 1009.5mb - 39f
10:00am 1.6ft 3s 13 16 mph 1009.6mb 39f 39f
9:50am  -   -  13 16 mph 1009.6mb - 38f
9:40am  -   -  13 16 mph 1009.9mb - 38f
9:30am  -   -  13 18 mph 1010mb - 38f
9:20am  -   -  13 16 mph 1010.1mb - 38f
9:10am  -   -  13 16 mph 1010.2mb - 38f
9:00am 1.6ft 3s 16
mph
1010.1mb 39f 38f
8:50am  -   -  16 18 mph 1010.2mb - 38f
8:40am  -   -  13 18 mph 1010.3mb - 39f
8:30am  -   -  16 18 mph 1010.2mb - 39f
8:20am  -   -  16 18 mph 1010.3mb - 39f